LIRZLIRU

Guest
Details From LIRZ - PERUGIA
To LIRU - Urbe
Flight Number -
Tags generated
Created
Modified
Stats Distance 69 nm / 128 km
Max Altitude 3,900 ft / 1,189 m
Waypoints 3
Social Downloads 1
Likes 0
Share VATSIM

Download

Looking for another format? Having issues loading an existing format? Contact us
Advertisement - Login to hide

Notes

Basic altitude profile: - Ascent Rate: 2500ft/min - Ascent Speed: 250kts - Cruise Altitude: 35000ft - Cruise Speed: 420kts - Descent Rate: 1500ft/min - Descent Speed: 250kts Options: - Use NATs: yes - Use PACOTS: yes - Use low airways: yes - Use high airways: yes

Route

LIRZ TIBER LIRU

ID Type Via Altitude Latitude Longitude Leg Dist Tot Dist Heading (true) Name
O LIRZ APT - 0 ft / 0 m 43.09619˚ 12.51332˚ - 0 nm - PERUGIA
TIBER FIX - 3,900 ft / 1,189 m 42.24889˚ 12.59889˚ 51 nm 51 nm 176° / 176° -
O LIRU APT - 0 ft / 0 m 41.95238˚ 12.50225˚ 18 nm 69 nm 194° / 194° Urbe

Altitude Profile

Advertisement - Login to hide

LIRZ

Details ICAO LIRZ (PEG)
Name PERUGIA
Region Italy
Timezone Europe/Rome (UTC+1.0)
Stats Elevation 693 ft / 211 m (AMSL)
Location 43.096192° 12.513325°
Runways 1
Magnetic Variation 3.104° E

METAR

LIRZ 121350Z 24007KT 5000 BR BKN025 13/11 Q1012

Decode

TAF

TAF TAF LIRZ 121100Z 1212/1312 20013KT 7000 BKN030 TEMPO 1212/1306 SHRA BECMG 1217/1219 VRB05KT

Decode

Departure Runways

ID Width Length Bearing (true) Bearing (mag) Surface Threshold Offset Overrun Length
01 154 ft / 47 m 5,783 ft / 1,763 m 14.26° 11.16° Asphalt 0 ft / 0 m 328 ft / 100 m
19 154 ft / 47 m 5,783 ft / 1,763 m 194.27° 191.17° Asphalt 85 ft / 26 m 0 ft / 0 m

LIRU

Details ICAO LIRU
Name Urbe
Region Italy
Timezone Europe/Rome (UTC+1.0)
Stats Elevation 55 ft / 17 m (AMSL)
Location 41.952376° 12.502250°
Runways 1
Magnetic Variation 3.048° E

METAR

LIRU 121415Z 19008KT 7000 SCT025 SCT045 16/13 Q1013

Decode

TAF

Not found

Destination Runways

ID Width Length Bearing (true) Bearing (mag) Surface Threshold Offset Overrun Length
16 98 ft / 30 m 3,560 ft / 1,085 m 160.00° 156.95° Asphalt 361 ft / 110 m 0 ft / 0 m
34 98 ft / 30 m 3,560 ft / 1,085 m 340.00° 336.95° Asphalt 384 ft / 117 m 0 ft / 0 m

Popular Alternatives